createdAt,value
2019-04-06T00:03:01.645Z,8.90
2019-04-06T00:07:10.453Z,8.80
2019-04-06T00:11:19.267Z,8.80
2019-04-06T00:15:27.747Z,8.90
2019-04-06T00:19:36.231Z,8.90
2019-04-06T00:23:44.773Z,8.90
2019-04-06T00:27:53.589Z,8.90
2019-04-06T00:32:03.699Z,8.90
2019-04-06T00:36:12.471Z,8.90
2019-04-06T00:40:20.973Z,8.90
2019-04-06T00:44:29.505Z,8.90
2019-04-06T00:48:38.358Z,8.90
2019-04-06T00:52:46.837Z,8.90
2019-04-06T00:56:55.318Z,8.80
2019-04-06T01:01:04.402Z,8.90
2019-04-06T01:05:12.950Z,8.90
2019-04-06T01:09:21.687Z,8.90
2019-04-06T01:13:30.234Z,8.90
2019-04-06T01:17:38.720Z,8.90
2019-04-06T01:21:47.159Z,8.90
2019-04-06T01:26:06.306Z,8.90
2019-04-06T01:30:08.141Z,8.90
2019-04-06T01:34:16.610Z,8.90
2019-04-06T01:38:25.139Z,8.90
2019-04-06T01:42:33.609Z,8.90
2019-04-06T01:46:42.082Z,9.00
2019-04-06T01:50:50.534Z,9.00
2019-04-06T01:54:59.250Z,9.00
2019-04-06T01:59:07.889Z,9.00
2019-04-06T02:03:16.431Z,9.00
2019-04-06T02:07:25.289Z,9.00
2019-04-06T02:11:33.858Z,9.00
2019-04-06T02:15:42.413Z,9.00
2019-04-06T02:19:50.879Z,9.00
2019-04-06T02:23:59.375Z,8.90
2019-04-06T02:28:08.110Z,8.90
2019-04-06T02:32:23.969Z,9.00
2019-04-06T02:36:43.087Z,9.00
2019-04-06T02:41:05.251Z,9.00
2019-04-06T02:45:14.000Z,9.00
2019-04-06T02:49:22.621Z,8.90
2019-04-06T02:53:31.123Z,8.90
2019-04-06T02:57:39.645Z,8.90
2019-04-06T03:01:48.654Z,9.00
2019-04-06T03:05:57.246Z,9.00
2019-04-06T03:10:06.646Z,9.00
2019-04-06T03:14:15.618Z,9.00
2019-04-06T03:18:24.071Z,9.00
2019-04-06T03:22:32.585Z,9.00
2019-04-06T03:26:41.112Z,9.00
2019-04-06T03:30:49.657Z,9.00
2019-04-06T03:34:58.929Z,9.00
2019-04-06T03:39:07.592Z,9.00
2019-04-06T03:43:16.076Z,9.00
2019-04-06T03:47:24.652Z,9.00
2019-04-06T03:51:33.136Z,9.00
2019-04-06T03:55:41.616Z,9.00
2019-04-06T03:59:50.057Z,9.00
2019-04-06T04:03:59.095Z,9.00
2019-04-06T04:08:07.829Z,9.00
2019-04-06T04:12:16.607Z,9.00
2019-04-06T04:16:25.377Z,9.00
2019-04-06T04:20:34.183Z,9.00
2019-04-06T04:24:42.761Z,9.00
2019-04-06T04:28:51.257Z,8.90
2019-04-06T04:32:59.837Z,9.00
2019-04-06T04:37:08.347Z,9.00
2019-04-06T04:41:17.565Z,9.00
2019-04-06T04:45:26.215Z,9.00
2019-04-06T04:49:34.847Z,9.00
2019-04-06T04:53:43.398Z,9.00
2019-04-06T04:57:52.127Z,9.00
2019-04-06T05:02:00.613Z,9.00
2019-04-06T05:06:09.113Z,9.10
2019-04-06T05:10:17.619Z,9.10
2019-04-06T05:14:54.998Z,9.10
2019-04-06T05:19:03.488Z,9.10
2019-04-06T05:23:12.032Z,9.10
2019-04-06T05:27:20.491Z,9.10
2019-04-06T05:31:29.133Z,9.10
2019-04-06T05:35:37.817Z,9.10
2019-04-06T05:39:46.371Z,9.10
2019-04-06T05:43:54.888Z,9.10
2019-04-06T05:48:03.642Z,9.20
2019-04-06T05:52:12.087Z,9.20
2019-04-06T05:56:20.568Z,9.20
2019-04-06T06:00:29.049Z,9.20
2019-04-06T06:04:40.249Z,9.30
2019-04-06T06:08:47.802Z,9.30
2019-04-06T06:12:56.259Z,9.40
2019-04-06T06:17:04.744Z,9.40
2019-04-06T06:21:13.364Z,9.40
2019-04-06T06:25:21.880Z,9.40
2019-04-06T06:29:30.375Z,9.50
2019-04-06T06:33:38.873Z,9.40
2019-04-06T06:37:47.619Z,9.50
2019-04-06T06:41:56.380Z,9.50
2019-04-06T06:46:05.603Z,9.60
2019-04-06T06:50:14.206Z,9.60
2019-04-06T06:54:22.717Z,9.70
2019-04-06T06:58:31.289Z,9.70
2019-04-06T07:02:39.743Z,9.70
2019-04-06T07:06:48.349Z,9.80
2019-04-06T07:10:56.963Z,9.90
2019-04-06T07:15:07.558Z,9.90
2019-04-06T07:19:17.130Z,9.90
2019-04-06T07:23:25.893Z,10.10
2019-04-06T07:27:34.698Z,10.20
2019-04-06T07:31:43.253Z,10.20
2019-04-06T07:35:52.008Z,10.30
2019-04-06T07:40:00.544Z,10.40
2019-04-06T07:44:09.020Z,10.50
2019-04-06T07:48:17.688Z,10.60
2019-04-06T07:52:26.208Z,10.70
2019-04-06T07:56:34.774Z,10.80
2019-04-06T08:00:43.251Z,10.80
2019-04-06T08:04:51.717Z,10.80
2019-04-06T08:09:00.198Z,10.90
2019-04-06T08:13:08.671Z,10.90
2019-04-06T08:17:17.528Z,11.00
2019-04-06T08:21:26.016Z,11.10
2019-04-06T08:25:34.886Z,11.20
2019-04-06T08:29:43.415Z,11.20
2019-04-06T08:33:51.934Z,11.30
2019-04-06T08:38:00.428Z,11.30
2019-04-06T08:42:08.970Z,11.30
2019-04-06T08:46:17.729Z,11.30
2019-04-06T08:50:26.453Z,11.40
2019-04-06T08:54:34.940Z,11.90
2019-04-06T08:59:11.249Z,11.80
2019-04-06T09:03:13.336Z,11.80
2019-04-06T09:07:22.277Z,11.80
2019-04-06T09:11:30.741Z,11.90
2019-04-06T09:15:39.247Z,12.10
2019-04-06T09:19:48.443Z,12.20
2019-04-06T09:23:58.311Z,12.40
2019-04-06T09:28:07.128Z,12.50
2019-04-06T09:32:15.614Z,12.60
2019-04-06T09:36:24.131Z,12.70
2019-04-06T09:40:32.634Z,12.80
2019-04-06T09:44:45.742Z,12.90
2019-04-06T09:48:56.033Z,12.90
2019-04-06T09:53:12.268Z,12.90
2019-04-06T09:57:25.070Z,12.90
2019-04-06T10:01:38.945Z,12.90
2019-04-06T10:06:03.789Z,12.90
2019-04-06T10:10:23.731Z,12.90
2019-04-06T10:14:39.888Z,13.00
2019-04-06T10:18:50.056Z,13.10
2019-04-06T10:23:00.567Z,13.30
2019-04-06T10:27:19.722Z,13.40
2019-04-06T10:31:39.011Z,13.40
2019-04-06T10:36:14.756Z,13.40
2019-04-06T10:40:40.152Z,13.30
2019-04-06T10:44:53.050Z,13.30
2019-04-06T10:49:09.010Z,13.20
2019-04-06T10:53:19.138Z,13.20
2019-04-06T10:57:38.015Z,13.10
2019-04-06T11:01:50.767Z,13.10
2019-04-06T11:06:04.144Z,13.10
2019-04-06T11:10:20.607Z,13.20
2019-04-06T11:14:31.141Z,13.40
2019-04-06T11:18:56.782Z,13.70
2019-04-06T11:23:12.731Z,13.80
2019-04-06T11:27:34.991Z,13.90
2019-04-06T11:31:51.019Z,14.00
2019-04-06T11:36:07.219Z,14.20
2019-04-06T11:40:35.480Z,14.20
2019-04-06T11:44:52.085Z,14.10
2019-04-06T11:49:07.994Z,14.10
2019-04-06T11:53:27.275Z,14.20
2019-04-06T11:57:49.818Z,14.30
2019-04-06T12:02:02.829Z,14.40
2019-04-06T12:06:15.827Z,14.40
2019-04-06T12:10:25.936Z,14.50
2019-04-06T12:14:38.990Z,14.60
2019-04-06T12:18:49.102Z,14.80
2019-04-06T12:23:15.654Z,14.90
2019-04-06T12:27:42.360Z,14.80
2019-04-06T12:31:52.557Z,14.90
2019-04-06T12:36:08.878Z,14.90
2019-04-06T12:40:21.888Z,14.90
2019-04-06T12:44:38.006Z,15.00
2019-04-06T12:48:56.800Z,15.10
2019-04-06T12:53:16.145Z,15.10
2019-04-06T12:57:41.878Z,15.00
2019-04-06T13:01:55.699Z,15.00
2019-04-06T13:06:22.567Z,15.00
2019-04-06T13:10:32.668Z,15.00
2019-04-06T13:14:57.860Z,15.00
2019-04-06T13:19:24.436Z,15.10
2019-04-06T13:23:34.526Z,15.20
2019-04-06T13:27:44.676Z,15.20
2019-04-06T13:31:57.372Z,15.20
2019-04-06T13:36:13.487Z,15.20
2019-04-06T13:40:29.885Z,15.30
2019-04-06T13:44:40.275Z,15.40
2019-04-06T13:49:07.025Z,15.50
2019-04-06T13:53:29.219Z,15.60
2019-04-06T13:57:39.367Z,15.60
2019-04-06T14:01:49.478Z,15.60
2019-04-06T14:06:11.992Z,15.60
2019-04-06T14:10:25.625Z,15.60
2019-04-06T14:14:41.476Z,15.70
2019-04-06T14:19:10.940Z,15.80
2019-04-06T14:23:21.201Z,15.90
2019-04-06T14:27:34.439Z,16.00
2019-04-06T14:31:44.565Z,16.30
2019-04-06T14:35:57.627Z,16.50
2019-04-06T14:40:25.492Z,16.40
2019-04-06T14:44:41.789Z,16.20
2019-04-06T14:49:17.223Z,15.90
2019-04-06T14:53:19.249Z,15.80
2019-04-06T14:57:48.039Z,15.80
2019-04-06T15:01:59.642Z,15.80
2019-04-06T15:06:28.439Z,15.80
2019-04-06T15:10:38.557Z,15.90
2019-04-06T15:14:48.737Z,15.90
2019-04-06T15:18:59.253Z,15.80
2019-04-06T15:23:09.375Z,15.90
2019-04-06T15:27:22.221Z,15.90
2019-04-06T15:31:35.154Z,16.00
2019-04-06T15:36:03.513Z,16.00
2019-04-06T15:40:13.676Z,16.10
2019-04-06T15:44:26.494Z,16.00
2019-04-06T15:48:52.620Z,16.10
2019-04-06T15:53:21.067Z,16.30
2019-04-06T15:57:33.914Z,16.50
2019-04-06T16:01:44.041Z,16.70
2019-04-06T16:05:57.755Z,16.80
2019-04-06T16:10:08.872Z,16.70
2019-04-06T16:14:27.888Z,16.60
2019-04-06T16:18:54.412Z,16.50
2019-04-06T16:23:20.796Z,16.40
2019-04-06T16:27:30.976Z,16.40
2019-04-06T16:31:41.142Z,16.40
2019-04-06T16:35:54.572Z,16.30
2019-04-06T16:40:17.412Z,16.30
2019-04-06T16:44:29.999Z,16.20
2019-04-06T16:48:56.901Z,16.10
2019-04-06T16:53:07.178Z,16.00
2019-04-06T16:57:17.304Z,15.90
2019-04-06T17:01:30.888Z,15.80
2019-04-06T17:05:59.282Z,15.80
2019-04-06T17:10:16.023Z,15.70
2019-04-06T17:14:42.763Z,15.60
2019-04-06T17:23:46.676Z,15.50
2019-04-06T17:28:06.044Z,15.50
2019-04-06T17:32:33.966Z,15.50
2019-04-06T17:36:39.430Z,15.50
2019-04-06T17:40:49.892Z,15.40
2019-04-06T17:45:00.234Z,15.40
2019-04-06T17:49:10.628Z,15.30
2019-04-06T17:53:29.475Z,15.20
2019-04-06T17:57:39.586Z,15.20
2019-04-06T18:01:57.137Z,15.10
2019-04-06T18:06:19.056Z,15.00
2019-04-06T18:10:45.263Z,14.90
2019-04-06T18:14:54.116Z,14.90
2019-04-06T18:19:02.688Z,14.70
2019-04-06T18:23:11.178Z,14.60
2019-04-06T18:27:19.675Z,14.60
2019-04-06T18:31:48.319Z,14.50
2019-04-06T18:35:57.351Z,14.40
2019-04-06T18:40:09.351Z,14.40
2019-04-06T18:44:17.839Z,14.30
2019-04-06T18:48:26.323Z,14.20
2019-04-06T18:52:35.014Z,14.00
2019-04-06T18:56:43.926Z,13.80
2019-04-06T19:00:52.599Z,13.80
2019-04-06T19:05:01.060Z,13.80
2019-04-06T19:09:20.667Z,13.70
2019-04-06T19:13:20.561Z,13.60
2019-04-06T19:17:29.255Z,13.50
2019-04-06T19:21:38.053Z,13.40
2019-04-06T19:25:46.538Z,13.20
2019-04-06T19:29:55.233Z,13.20
2019-04-06T19:34:03.788Z,13.20
2019-04-06T19:38:12.388Z,13.10
2019-04-06T19:42:21.521Z,13.00
2019-04-06T19:46:30.030Z,12.90
2019-04-06T19:50:38.518Z,12.90
2019-04-06T19:54:47.089Z,12.90
2019-04-06T19:58:55.586Z,12.90
2019-04-06T20:03:04.341Z,12.90
2019-04-06T20:07:12.883Z,12.80
2019-04-06T20:11:22.064Z,12.80
2019-04-06T20:15:30.979Z,12.80
2019-04-06T20:19:39.474Z,12.70
2019-04-06T20:23:48.335Z,12.80
2019-04-06T20:27:56.933Z,12.70
2019-04-06T20:32:05.574Z,12.70
2019-04-06T20:36:14.571Z,12.70
2019-04-06T20:40:23.374Z,12.60
2019-04-06T20:44:32.415Z,12.60
2019-04-06T20:48:41.180Z,12.60
2019-04-06T20:52:50.401Z,12.50
2019-04-06T20:56:59.318Z,12.50
2019-04-06T21:01:07.902Z,12.50
2019-04-06T21:05:16.734Z,12.50
2019-04-06T21:09:25.805Z,12.50
2019-04-06T21:13:34.381Z,12.50
2019-04-06T21:17:42.846Z,12.50
2019-04-06T21:21:51.974Z,12.40
2019-04-06T21:26:00.636Z,12.40
2019-04-06T21:30:10.776Z,12.30
2019-04-06T21:34:19.461Z,12.30
2019-04-06T21:38:28.379Z,12.30
2019-04-06T21:42:37.631Z,12.30
2019-04-06T21:46:46.268Z,12.20
2019-04-06T21:50:54.890Z,12.20
2019-04-06T21:55:04.921Z,12.10
2019-04-06T21:59:15.803Z,12.10
2019-04-06T22:03:23.682Z,12.10
2019-04-06T22:07:32.441Z,12.00
2019-04-06T22:11:40.969Z,12.00
2019-04-06T22:15:49.414Z,12.10
2019-04-06T22:19:58.133Z,12.00
2019-04-06T22:24:06.771Z,12.00
2019-04-06T22:28:15.328Z,12.00
2019-04-06T22:32:24.478Z,11.90
2019-04-06T22:36:33.011Z,11.90
2019-04-06T22:40:41.892Z,11.80
2019-04-06T22:44:51.092Z,11.80
2019-04-06T22:49:00.146Z,11.70
2019-04-06T22:53:08.786Z,11.70
2019-04-06T22:57:17.320Z,11.70
2019-04-06T23:01:27.859Z,11.70
2019-04-06T23:05:40.718Z,11.60
2019-04-06T23:09:49.370Z,11.60
2019-04-06T23:13:58.105Z,11.60
2019-04-06T23:18:07.068Z,11.60
2019-04-06T23:22:15.850Z,11.60
2019-04-06T23:26:25.018Z,11.70
2019-04-06T23:30:33.952Z,11.70
2019-04-06T23:34:43.069Z,11.70
2019-04-06T23:38:52.092Z,11.80
2019-04-06T23:43:00.590Z,11.80
2019-04-06T23:47:09.066Z,11.80
2019-04-06T23:51:17.872Z,11.80
2019-04-06T23:55:26.329Z,11.80
2019-04-06T23:59:35.154Z,11.80
